createdAt,value
2024-03-08T00:00:20.530Z,29.10
2024-03-08T00:02:52.469Z,25.77
2024-03-08T00:05:20.570Z,28.00
2024-03-08T00:07:48.945Z,29.90
2024-03-08T00:10:18.187Z,29.00
2024-03-08T00:12:47.512Z,29.93
2024-03-08T00:15:20.177Z,31.13
2024-03-08T00:17:49.432Z,31.60
2024-03-08T00:20:19.661Z,29.53
2024-03-08T00:22:48.351Z,27.80
2024-03-08T00:25:17.236Z,27.13
2024-03-08T00:27:45.324Z,28.53
2024-03-08T00:30:14.924Z,28.23
2024-03-08T00:32:44.861Z,25.07
2024-03-08T00:35:13.669Z,31.20
2024-03-08T00:37:43.399Z,28.03
2024-03-08T00:40:12.106Z,26.70
2024-03-08T00:42:41.428Z,29.93
2024-03-08T00:45:11.387Z,26.90
2024-03-08T00:47:40.277Z,26.20
2024-03-08T00:50:10.579Z,28.10
2024-03-08T00:52:38.759Z,28.10
2024-03-08T00:55:07.371Z,31.40
2024-03-08T00:57:35.097Z,29.30
2024-03-08T01:00:06.712Z,27.17
2024-03-08T01:02:36.715Z,27.13
2024-03-08T01:05:08.433Z,26.17
2024-03-08T01:07:37.965Z,31.17
2024-03-08T01:10:10.953Z,29.53
2024-03-08T01:12:39.006Z,30.33
2024-03-08T01:15:08.157Z,28.13
2024-03-08T01:17:36.581Z,33.10
2024-03-08T01:20:05.062Z,27.30
2024-03-08T01:22:32.853Z,32.20
2024-03-08T01:25:01.899Z,32.23
2024-03-08T01:27:30.303Z,24.73
2024-03-08T01:29:58.130Z,27.67
2024-03-08T01:32:26.367Z,31.67
2024-03-08T01:34:54.401Z,28.03
2024-03-08T01:37:22.185Z,29.87
2024-03-08T01:39:50.453Z,33.20
2024-03-08T01:42:19.629Z,27.60
2024-03-08T01:44:47.721Z,27.13
2024-03-08T01:47:15.554Z,27.13
2024-03-08T01:49:43.407Z,27.83
2024-03-08T01:52:12.679Z,29.40
2024-03-08T01:54:42.397Z,26.77
2024-03-08T01:57:10.573Z,30.07
2024-03-08T01:59:40.144Z,31.87
2024-03-08T02:02:10.641Z,26.67
2024-03-08T02:04:39.874Z,25.10
2024-03-08T02:07:10.893Z,22.53
2024-03-08T02:09:39.383Z,25.00
2024-03-08T02:12:07.484Z,28.23
2024-03-08T02:14:41.262Z,25.10
2024-03-08T02:17:09.589Z,26.53
2024-03-08T02:19:37.613Z,27.63
2024-03-08T02:22:08.444Z,22.37
2024-03-08T02:24:36.715Z,22.20
2024-03-08T02:27:04.956Z,25.33
2024-03-08T02:29:35.418Z,27.27
2024-03-08T02:32:04.167Z,23.80
2024-03-08T02:34:33.405Z,24.27
2024-03-08T02:37:01.141Z,26.20
2024-03-08T02:39:30.589Z,25.30
2024-03-08T02:41:58.470Z,27.23
2024-03-08T02:44:26.289Z,24.43
2024-03-08T02:46:56.172Z,21.83
2024-03-08T02:49:24.209Z,25.73
2024-03-08T02:51:52.227Z,23.53
2024-03-08T02:54:20.515Z,26.30
2024-03-08T02:56:51.542Z,23.80
2024-03-08T02:59:20.193Z,24.43
2024-03-08T03:01:47.994Z,23.67
2024-03-08T03:04:16.060Z,29.10
2024-03-08T03:06:43.839Z,24.17
2024-03-08T03:09:12.112Z,30.00
2024-03-08T03:11:40.145Z,28.57
2024-03-08T03:14:10.240Z,23.77
2024-03-08T03:16:38.062Z,24.20
2024-03-08T03:19:06.841Z,28.60
2024-03-08T03:21:36.951Z,26.30
2024-03-08T03:24:06.370Z,27.77
2024-03-08T03:26:34.216Z,26.83
2024-03-08T03:29:04.366Z,28.07
2024-03-08T03:31:33.620Z,28.40
2024-03-08T03:34:04.109Z,26.80
2024-03-08T03:36:32.576Z,30.47
2024-03-08T03:39:12.014Z,24.83
2024-03-08T03:41:40.406Z,25.30
2024-03-08T03:44:08.663Z,26.93
2024-03-08T03:46:37.855Z,26.07
2024-03-08T03:49:05.898Z,24.60
2024-03-08T03:51:33.719Z,29.93
2024-03-08T03:54:01.982Z,29.07
2024-03-08T03:56:30.072Z,28.40
2024-03-08T03:58:58.140Z,31.43
2024-03-08T04:01:26.152Z,27.83
2024-03-08T04:03:55.610Z,30.53
2024-03-08T04:06:23.801Z,27.40
2024-03-08T04:08:52.082Z,33.37
2024-03-08T04:11:19.930Z,28.40
2024-03-08T04:13:47.934Z,29.60
2024-03-08T04:16:16.419Z,32.43
2024-03-08T04:18:44.902Z,25.90
2024-03-08T04:21:14.511Z,26.03
2024-03-08T04:23:42.612Z,27.03
2024-03-08T04:26:10.583Z,24.87
2024-03-08T04:28:40.682Z,28.47
2024-03-08T04:31:08.755Z,31.47
2024-03-08T04:33:36.976Z,27.60
2024-03-08T04:36:05.418Z,32.43
2024-03-08T04:38:34.663Z,28.80
2024-03-08T04:41:02.945Z,29.83
2024-03-08T04:43:31.655Z,30.30
2024-03-08T04:45:59.692Z,32.33
2024-03-08T04:48:27.964Z,27.40
2024-03-08T04:50:56.897Z,29.13
2024-03-08T04:53:25.229Z,31.77
2024-03-08T04:55:54.547Z,27.63
2024-03-08T04:58:22.579Z,29.77
2024-03-08T05:00:51.174Z,28.30
2024-03-08T05:03:18.959Z,28.60
2024-03-08T05:05:47.257Z,31.23
2024-03-08T05:08:15.064Z,30.87
2024-03-08T05:10:43.347Z,34.67
2024-03-08T05:13:14.073Z,30.40
2024-03-08T05:15:42.268Z,29.80
2024-03-08T05:18:12.572Z,28.40
2024-03-08T05:20:42.378Z,32.17
2024-03-08T05:23:10.617Z,29.70
2024-03-08T05:25:38.504Z,31.57
2024-03-08T05:28:07.857Z,32.13
2024-03-08T05:30:38.083Z,34.83
2024-03-08T05:33:06.376Z,37.00
2024-03-08T05:35:34.924Z,35.70
2024-03-08T05:38:03.069Z,30.20
2024-03-08T05:40:33.079Z,34.37
2024-03-08T05:43:01.649Z,31.40
2024-03-08T05:45:29.377Z,33.87
2024-03-08T05:47:59.339Z,32.50
2024-03-08T05:50:28.469Z,35.83
2024-03-08T05:52:56.689Z,34.80
2024-03-08T05:55:26.105Z,34.20
2024-03-08T05:57:55.027Z,32.97
2024-03-08T06:00:24.047Z,34.07
2024-03-08T06:02:52.817Z,29.17
2024-03-08T06:05:24.499Z,30.90
2024-03-08T06:07:54.457Z,33.40
2024-03-08T06:10:22.525Z,34.40
2024-03-08T06:12:51.754Z,31.07
2024-03-08T06:15:22.448Z,29.80
2024-03-08T06:17:50.714Z,30.60
2024-03-08T06:20:18.629Z,32.30
2024-03-08T06:22:48.303Z,31.40
2024-03-08T06:25:17.008Z,32.97
2024-03-08T06:27:44.796Z,34.73
2024-03-08T06:30:13.676Z,29.73
2024-03-08T06:32:43.984Z,29.97
2024-03-08T06:35:12.512Z,30.43
2024-03-08T06:37:40.566Z,35.60
2024-03-08T06:40:15.478Z,33.77
2024-03-08T06:42:43.930Z,28.13
2024-03-08T06:45:14.129Z,36.67
2024-03-08T06:47:43.153Z,31.50
2024-03-08T06:50:12.953Z,30.40
2024-03-08T06:52:41.284Z,32.50
2024-03-08T06:55:13.425Z,29.60
2024-03-08T06:57:41.726Z,33.63
2024-03-08T07:00:12.809Z,26.50
2024-03-08T07:02:41.714Z,31.63
2024-03-08T07:05:12.053Z,30.00
2024-03-08T07:07:42.698Z,29.00
2024-03-08T07:10:15.857Z,25.33
2024-03-08T07:12:44.134Z,27.63
2024-03-08T07:15:15.085Z,29.37
2024-03-08T07:17:45.515Z,24.70
2024-03-08T07:20:14.886Z,32.40
2024-03-08T07:22:44.000Z,30.37
2024-03-08T07:25:22.860Z,31.10
2024-03-08T07:27:52.529Z,24.43
2024-03-08T07:30:34.947Z,27.77
2024-03-08T07:33:04.029Z,27.43
2024-03-08T07:35:32.390Z,31.10
2024-03-08T07:38:01.080Z,26.17
2024-03-08T07:40:30.694Z,27.50
2024-03-08T07:42:59.694Z,24.53
2024-03-08T07:45:27.755Z,25.93
2024-03-08T07:47:57.360Z,27.00
2024-03-08T07:50:25.148Z,27.43
2024-03-08T07:52:53.674Z,29.60
2024-03-08T07:55:21.481Z,26.03
2024-03-08T07:57:51.099Z,25.33
2024-03-08T08:00:19.926Z,27.30
2024-03-08T08:02:47.994Z,28.80
2024-03-08T08:05:16.086Z,28.33
2024-03-08T08:07:49.119Z,27.57
2024-03-08T08:10:19.974Z,27.73
2024-03-08T08:12:48.368Z,29.30
2024-03-08T08:15:17.721Z,28.00
2024-03-08T08:17:45.991Z,32.00
2024-03-08T08:20:14.726Z,28.83
2024-03-08T08:22:44.191Z,30.50
2024-03-08T08:25:14.795Z,30.63
2024-03-08T08:27:44.439Z,25.33
2024-03-08T08:30:15.522Z,29.00
2024-03-08T08:32:45.087Z,26.50
2024-03-08T08:35:14.631Z,29.80
2024-03-08T08:37:43.412Z,25.40
2024-03-08T08:40:16.573Z,24.23
2024-03-08T08:42:45.111Z,28.17
2024-03-08T08:45:16.934Z,25.70
2024-03-08T08:47:48.314Z,25.73
2024-03-08T08:50:17.470Z,24.73
2024-03-08T08:52:46.225Z,25.33
2024-03-08T08:55:16.395Z,24.80
2024-03-08T08:57:45.317Z,27.70
2024-03-08T09:00:16.746Z,27.90
2024-03-08T09:02:45.756Z,26.00
2024-03-08T09:05:23.006Z,24.40
2024-03-08T09:07:51.202Z,28.67
2024-03-08T09:10:19.922Z,26.00
2024-03-08T09:12:48.588Z,23.47
2024-03-08T09:15:21.871Z,25.70
2024-03-08T09:17:50.428Z,24.67
2024-03-08T09:20:20.160Z,20.40
2024-03-08T09:22:48.115Z,28.70
2024-03-08T09:25:16.426Z,23.63
2024-03-08T09:27:44.170Z,22.77
2024-03-08T09:30:16.815Z,21.40
2024-03-08T09:32:45.365Z,20.30
2024-03-08T09:35:13.729Z,23.00
2024-03-08T09:37:43.368Z,20.80
2024-03-08T09:40:12.002Z,21.87
2024-03-08T09:42:40.041Z,23.13
2024-03-08T09:45:11.871Z,27.47
2024-03-08T09:47:42.983Z,22.33
2024-03-08T09:50:13.708Z,21.97
2024-03-08T09:52:44.990Z,24.70
2024-03-08T09:55:13.853Z,24.10
2024-03-08T09:57:43.916Z,24.13
2024-03-08T10:00:25.705Z,23.37
2024-03-08T10:02:55.022Z,21.73
2024-03-08T10:05:24.449Z,24.13
2024-03-08T10:07:54.281Z,22.43
2024-03-08T10:10:23.193Z,22.97
2024-03-08T10:12:51.215Z,23.37
2024-03-08T10:15:19.552Z,26.37
2024-03-08T10:17:47.452Z,21.80
2024-03-08T10:20:17.225Z,22.10
2024-03-08T10:22:54.379Z,23.37
2024-03-08T10:25:32.177Z,25.03
2024-03-08T10:27:59.899Z,22.87
2024-03-08T10:30:29.077Z,24.37
2024-03-08T10:32:57.278Z,22.87
2024-03-08T10:35:25.356Z,20.60
2024-03-08T10:38:00.923Z,19.67
2024-03-08T10:40:30.037Z,22.37
2024-03-08T10:43:00.926Z,22.47
2024-03-08T10:45:38.730Z,24.17
2024-03-08T10:48:36.795Z,21.50
2024-03-08T10:51:08.419Z,20.07
2024-03-08T10:53:40.918Z,21.77
2024-03-08T10:56:10.471Z,28.40
2024-03-08T10:58:40.765Z,26.73
2024-03-08T11:01:11.500Z,21.60
2024-03-08T11:03:54.364Z,25.53
2024-03-08T11:06:31.661Z,23.20
2024-03-08T11:08:59.691Z,24.03
2024-03-08T11:11:34.218Z,24.57
2024-03-08T11:14:05.780Z,24.10
2024-03-08T11:16:44.273Z,25.37
2024-03-08T11:19:27.182Z,26.43
2024-03-08T11:22:03.029Z,22.27
2024-03-08T11:24:41.432Z,21.53
2024-03-08T11:27:10.918Z,24.20
2024-03-08T11:29:41.343Z,22.43
2024-03-08T11:32:14.254Z,20.97
2024-03-08T11:34:45.972Z,23.47
2024-03-08T11:37:16.960Z,23.47
2024-03-08T11:39:53.330Z,23.80
2024-03-08T11:42:23.090Z,21.63
2024-03-08T11:44:53.460Z,24.50
2024-03-08T11:47:22.003Z,22.67
2024-03-08T11:49:50.348Z,22.80
2024-03-08T11:52:19.925Z,20.63
2024-03-08T11:54:55.768Z,22.27
2024-03-08T11:57:25.485Z,23.00
2024-03-08T11:59:57.634Z,23.33
2024-03-08T12:02:26.167Z,27.00
2024-03-08T12:04:58.790Z,23.80
2024-03-08T12:07:26.630Z,23.50
2024-03-08T12:10:18.631Z,23.07
2024-03-08T12:12:48.074Z,24.10
2024-03-08T12:15:16.853Z,24.97
2024-03-08T12:17:44.993Z,24.63
2024-03-08T12:20:18.248Z,21.07
2024-03-08T12:22:50.181Z,21.83
2024-03-08T12:25:18.096Z,21.40
2024-03-08T12:27:47.178Z,23.23
2024-03-08T12:30:28.193Z,22.80
2024-03-08T12:32:59.079Z,20.43
2024-03-08T12:35:28.637Z,27.83
2024-03-08T12:37:58.505Z,24.40
2024-03-08T12:40:33.463Z,31.57
2024-03-08T12:43:01.579Z,24.20
2024-03-08T12:45:30.939Z,23.27
2024-03-08T12:48:00.686Z,23.00
2024-03-08T12:50:28.549Z,22.50
2024-03-08T12:52:57.040Z,21.87
2024-03-08T12:55:25.323Z,22.93
2024-03-08T12:57:54.334Z,25.77
2024-03-08T13:00:24.756Z,23.77
2024-03-08T13:02:54.261Z,24.20
2024-03-08T13:05:22.743Z,26.50
2024-03-08T13:07:50.960Z,30.13
2024-03-08T13:10:21.831Z,46.63
2024-03-08T13:12:52.956Z,22.80
2024-03-08T13:15:23.759Z,25.50
2024-03-08T13:17:52.007Z,21.23
2024-03-08T13:20:27.955Z,27.60
2024-03-08T13:23:03.206Z,22.30
2024-03-08T13:25:31.135Z,26.00
2024-03-08T13:28:00.827Z,22.23
2024-03-08T13:30:28.857Z,24.73
2024-03-08T13:32:56.745Z,23.77
2024-03-08T13:35:31.535Z,23.70
2024-03-08T13:37:59.596Z,25.20
2024-03-08T13:40:27.486Z,21.30
2024-03-08T13:42:55.382Z,20.07
2024-03-08T13:45:25.786Z,21.57
2024-03-08T13:47:56.207Z,23.53
2024-03-08T13:50:24.634Z,21.57
2024-03-08T13:52:56.568Z,24.00
2024-03-08T13:55:26.804Z,22.20
2024-03-08T13:57:55.571Z,22.67
2024-03-08T14:00:24.423Z,24.20
2024-03-08T14:02:52.381Z,23.53
2024-03-08T14:05:21.170Z,21.10
2024-03-08T14:07:50.744Z,24.60
2024-03-08T14:10:21.773Z,25.00
2024-03-08T14:12:52.083Z,22.50
2024-03-08T14:15:21.661Z,23.67
2024-03-08T14:17:54.928Z,23.13
2024-03-08T14:20:26.426Z,19.87
2024-03-08T14:22:54.747Z,25.03
2024-03-08T14:25:26.762Z,23.87
2024-03-08T14:27:59.289Z,23.77
2024-03-08T14:30:42.176Z,23.80
2024-03-08T14:33:10.934Z,21.50
2024-03-08T14:35:39.191Z,24.27
2024-03-08T14:38:09.602Z,24.37
2024-03-08T14:40:39.777Z,20.70
2024-03-08T14:43:07.792Z,25.50
2024-03-08T14:45:36.017Z,22.50
2024-03-08T14:48:05.873Z,20.33
2024-03-08T14:50:34.298Z,20.93
2024-03-08T14:53:07.724Z,24.23
2024-03-08T14:55:36.119Z,21.77
2024-03-08T14:58:06.084Z,22.63
2024-03-08T15:00:36.069Z,23.00
2024-03-08T15:03:06.246Z,26.67
2024-03-08T15:05:38.956Z,23.00
2024-03-08T15:08:12.401Z,22.30
2024-03-08T15:10:41.994Z,22.03
2024-03-08T15:13:23.143Z,19.73
2024-03-08T15:15:56.058Z,20.83
2024-03-08T15:18:30.951Z,21.60
2024-03-08T15:20:58.807Z,22.67
2024-03-08T15:23:27.175Z,20.03
2024-03-08T15:25:55.773Z,18.43
2024-03-08T15:28:31.986Z,21.47
2024-03-08T15:31:06.514Z,21.67
2024-03-08T15:33:38.261Z,19.67
2024-03-08T15:36:10.739Z,18.97
2024-03-08T15:38:39.144Z,20.93
2024-03-08T15:41:11.143Z,18.90
2024-03-08T15:43:42.490Z,23.33
2024-03-08T15:46:11.646Z,17.90
2024-03-08T15:48:41.726Z,23.80
2024-03-08T15:51:12.408Z,19.93
2024-03-08T15:53:40.677Z,22.53
2024-03-08T15:56:10.724Z,20.63
2024-03-08T15:58:40.289Z,21.10
2024-03-08T16:01:08.985Z,16.30
2024-03-08T16:03:37.551Z,19.20
2024-03-08T16:06:07.498Z,18.50
2024-03-08T16:08:38.623Z,19.10
2024-03-08T16:11:07.939Z,19.57
2024-03-08T16:13:39.486Z,20.67
2024-03-08T16:16:09.450Z,18.70
2024-03-08T16:18:39.266Z,22.23
2024-03-08T16:21:08.955Z,22.70
2024-03-08T16:23:37.802Z,21.93
2024-03-08T16:26:07.698Z,21.60
2024-03-08T16:28:41.486Z,20.57
2024-03-08T16:31:12.081Z,21.20
2024-03-08T16:33:41.441Z,17.90
2024-03-08T16:36:12.082Z,18.70
2024-03-08T16:38:40.808Z,17.17
2024-03-08T16:41:09.012Z,17.83
2024-03-08T16:43:38.017Z,18.63
2024-03-08T16:46:06.281Z,20.30
2024-03-08T16:48:37.228Z,19.33
2024-03-08T16:51:10.273Z,18.53
2024-03-08T16:53:42.126Z,19.57
2024-03-08T16:56:13.807Z,21.17
2024-03-08T16:58:44.535Z,19.77
2024-03-08T17:01:13.085Z,17.33
2024-03-08T17:03:52.002Z,18.40
2024-03-08T17:06:27.289Z,16.60
2024-03-08T17:08:55.397Z,17.50
2024-03-08T17:11:25.341Z,19.00
2024-03-08T17:13:53.581Z,17.70
2024-03-08T17:16:25.876Z,16.90
2024-03-08T17:18:55.963Z,17.97
2024-03-08T17:21:25.903Z,18.47
2024-03-08T17:23:54.134Z,21.40
2024-03-08T17:26:22.462Z,16.27
2024-03-08T17:28:51.438Z,17.97
2024-03-08T17:31:20.410Z,21.80
2024-03-08T17:33:49.005Z,21.47
2024-03-08T17:36:20.554Z,17.57
2024-03-08T17:38:51.419Z,18.93
2024-03-08T17:41:24.775Z,17.83
2024-03-08T17:43:53.630Z,19.93
2024-03-08T17:46:22.159Z,21.30
2024-03-08T17:48:50.162Z,19.00
2024-03-08T17:51:19.334Z,19.43
2024-03-08T17:53:49.587Z,21.40
2024-03-08T17:56:17.576Z,18.27
2024-03-08T17:58:46.362Z,19.07
2024-03-08T18:01:15.029Z,22.87
2024-03-08T18:03:43.333Z,18.27
2024-03-08T18:06:11.420Z,17.10
2024-03-08T18:08:43.945Z,19.47
2024-03-08T18:11:11.960Z,19.20
2024-03-08T18:13:40.266Z,18.77
2024-03-08T18:16:09.191Z,23.63
2024-03-08T18:18:38.145Z,23.17
2024-03-08T18:21:07.088Z,23.03
2024-03-08T18:23:35.327Z,19.67
2024-03-08T18:26:04.796Z,19.07
2024-03-08T18:28:33.228Z,18.20
2024-03-08T18:31:02.006Z,19.57
2024-03-08T18:33:33.589Z,13.80
2024-03-08T18:36:01.904Z,19.63
2024-03-08T18:38:29.786Z,14.50
2024-03-08T18:40:58.989Z,16.23
2024-03-08T18:43:28.972Z,14.70
2024-03-08T18:45:58.852Z,14.60
2024-03-08T18:48:27.694Z,17.57
2024-03-08T18:50:55.740Z,16.23
2024-03-08T18:53:24.362Z,16.40
2024-03-08T18:55:52.776Z,14.30
2024-03-08T18:58:30.570Z,16.80
2024-03-08T19:01:06.443Z,15.33
2024-03-08T19:03:35.687Z,15.27
2024-03-08T19:06:04.046Z,14.83
2024-03-08T19:08:37.086Z,16.00
2024-03-08T19:11:05.981Z,14.50
2024-03-08T19:13:34.521Z,16.23
2024-03-08T19:16:02.420Z,16.77
2024-03-08T19:18:31.584Z,15.57
2024-03-08T19:21:01.261Z,15.87
2024-03-08T19:23:32.236Z,16.53
2024-03-08T19:26:02.244Z,17.23
2024-03-08T19:28:35.607Z,14.50
2024-03-08T19:31:18.560Z,15.90
2024-03-08T19:33:54.961Z,19.63
2024-03-08T19:36:26.305Z,14.03
2024-03-08T19:38:55.925Z,14.97
2024-03-08T19:41:25.367Z,16.27
2024-03-08T19:43:53.343Z,17.07
2024-03-08T19:46:22.492Z,18.20
2024-03-08T19:48:51.741Z,16.33
2024-03-08T19:51:19.812Z,16.60
2024-03-08T19:53:50.348Z,18.50
2024-03-08T19:56:18.610Z,17.90
2024-03-08T19:58:48.598Z,18.07
2024-03-08T20:01:16.845Z,16.87
2024-03-08T20:03:45.583Z,15.97
2024-03-08T20:06:14.711Z,16.00
2024-03-08T20:08:43.245Z,17.07
2024-03-08T20:11:12.136Z,17.43
2024-03-08T20:13:40.928Z,15.63
2024-03-08T20:16:10.982Z,15.67
2024-03-08T20:18:39.363Z,16.53
2024-03-08T20:21:07.694Z,15.50
2024-03-08T20:23:37.266Z,14.63
2024-03-08T20:26:12.562Z,17.53
2024-03-08T20:28:42.983Z,15.17
2024-03-08T20:31:11.956Z,14.60
2024-03-08T20:33:42.320Z,17.80
2024-03-08T20:36:12.178Z,15.90
2024-03-08T20:38:42.589Z,17.70
2024-03-08T20:41:12.633Z,15.53
2024-03-08T20:43:41.754Z,17.23
2024-03-08T20:46:09.563Z,15.50
2024-03-08T20:48:37.679Z,16.00
2024-03-08T20:51:07.751Z,18.10
2024-03-08T20:53:35.878Z,18.37
2024-03-08T20:56:05.536Z,16.80
2024-03-08T20:58:33.393Z,18.93
2024-03-08T21:01:05.110Z,17.63
2024-03-08T21:03:33.086Z,22.50
2024-03-08T21:06:00.786Z,17.43
2024-03-08T21:08:29.662Z,18.87
2024-03-08T21:11:00.317Z,16.03
2024-03-08T21:13:29.689Z,18.70
2024-03-08T21:15:59.253Z,15.50
2024-03-08T21:18:27.994Z,18.27
2024-03-08T21:20:57.222Z,17.70
2024-03-08T21:23:26.574Z,16.70
2024-03-08T21:25:55.241Z,19.10
2024-03-08T21:28:30.253Z,17.73
2024-03-08T21:31:01.992Z,17.70
2024-03-08T21:33:30.632Z,14.07
2024-03-08T21:36:00.694Z,15.50
2024-03-08T21:38:28.565Z,18.70
2024-03-08T21:41:02.738Z,16.57
2024-03-08T21:43:36.377Z,24.03
2024-03-08T21:46:06.057Z,23.43
2024-03-08T21:48:34.425Z,21.83
2024-03-08T21:51:02.250Z,16.93
2024-03-08T21:53:35.069Z,22.20
2024-03-08T21:56:04.763Z,18.90
2024-03-08T21:58:35.219Z,18.67
2024-03-08T22:01:06.030Z,16.90
2024-03-08T22:03:37.077Z,18.20
2024-03-08T22:06:11.246Z,20.57
2024-03-08T22:08:42.176Z,18.23
2024-03-08T22:11:10.592Z,18.43
2024-03-08T22:13:38.710Z,18.70
2024-03-08T22:16:07.103Z,20.90
2024-03-08T22:18:38.772Z,19.67
2024-03-08T22:21:08.148Z,19.80
2024-03-08T22:23:35.899Z,17.77
2024-03-08T22:26:08.637Z,20.10
2024-03-08T22:28:36.761Z,18.97
2024-03-08T22:31:07.535Z,23.17
2024-03-08T22:33:36.967Z,20.37
2024-03-08T22:36:08.364Z,17.77
2024-03-08T22:38:36.692Z,19.10
2024-03-08T22:41:04.630Z,17.10
2024-03-08T22:43:33.095Z,16.43
2024-03-08T22:46:01.008Z,20.27
2024-03-08T22:48:29.112Z,19.13
2024-03-08T22:50:59.257Z,16.73
2024-03-08T22:53:29.290Z,18.83
2024-03-08T22:55:57.440Z,19.73
2024-03-08T22:58:25.191Z,20.73
2024-03-08T23:01:03.412Z,18.77
2024-03-08T23:03:35.604Z,18.57
2024-03-08T23:06:05.705Z,16.87
2024-03-08T23:08:33.988Z,19.13
2024-03-08T23:11:02.909Z,17.63
2024-03-08T23:13:30.969Z,16.03
2024-03-08T23:16:02.669Z,18.17
2024-03-08T23:18:31.282Z,21.10
2024-03-08T23:20:59.012Z,18.90
2024-03-08T23:23:28.493Z,18.23
2024-03-08T23:25:56.476Z,16.93
2024-03-08T23:28:24.933Z,20.00
2024-03-08T23:30:53.642Z,18.00
2024-03-08T23:33:21.491Z,15.00
2024-03-08T23:35:49.788Z,18.20
2024-03-08T23:38:19.616Z,19.57
2024-03-08T23:40:49.432Z,15.13
2024-03-08T23:43:18.502Z,19.43
2024-03-08T23:45:46.448Z,15.20
2024-03-08T23:48:16.015Z,16.27
2024-03-08T23:50:44.396Z,17.47
2024-03-08T23:53:12.787Z,23.10
2024-03-08T23:55:40.689Z,18.70
2024-03-08T23:58:12.305Z,21.10
